Time,TemperatureF,DewpointF,PressureIn,WindDirection,WindDirectionDegrees,WindSpeedMPH,WindSpeedGustMPH,Humidity,HourlyPrecipIn,Conditions,Clouds,dailyrainin,SoftwareType,DateUTC
2013-10-24 00:01:00,24.4,19.1,29.98,NE,45,0.0,-999.0,80,-99.99,,,0.00,Acu-Link.com,2013-10-24 06:01:00,
2013-10-24 00:17:00,23.9,19.2,29.98,North,0,2.7,-999.0,82,-99.99,,,0.00,Acu-Link.com,2013-10-24 06:17:00,
2013-10-24 00:32:00,24.4,18.8,29.98,NNW,337,2.2,-999.0,79,-99.99,,,0.00,Acu-Link.com,2013-10-24 06:32:00,
2013-10-24 00:47:00,23.9,19.5,29.98,SE,135,0.0,-999.0,83,-99.99,,,0.00,Acu-Link.com,2013-10-24 06:47:00,
2013-10-24 01:03:00,23.4,18.4,29.98,SW,225,0.0,-999.0,81,-99.99,,,0.00,Acu-Link.com,2013-10-24 07:03:00,
2013-10-24 01:18:00,22.6,18.5,29.98,NNE,22,0.0,-999.0,84,-99.99,,,0.00,Acu-Link.com,2013-10-24 07:18:00,
2013-10-24 01:33:00,22.3,18.2,29.99,NNE,22,0.0,-999.0,84,-99.99,,,0.00,Acu-Link.com,2013-10-24 07:33:00,
2013-10-24 01:48:00,21.9,18.1,30.00,ENE,67,0.0,-999.0,85,-99.99,,,0.00,Acu-Link.com,2013-10-24 07:48:00,
2013-10-24 02:03:00,20.8,17.6,29.99,North,0,0.0,-999.0,87,-99.99,,,0.00,Acu-Link.com,2013-10-24 08:03:00,
2013-10-24 02:19:00,20.7,17.2,29.99,ESE,112,0.0,-999.0,86,-99.99,,,0.00,Acu-Link.com,2013-10-24 08:19:00,
2013-10-24 02:34:00,20.1,17.1,30.00,ENE,67,0.0,-999.0,88,-99.99,,,0.00,Acu-Link.com,2013-10-24 08:34:00,
2013-10-24 02:49:00,19.8,17.1,30.01,NNE,22,0.0,-999.0,89,-99.99,,,0.00,Acu-Link.com,2013-10-24 08:49:00,
2013-10-24 03:04:00,19.6,17.7,30.01,NNE,22,0.0,-999.0,92,-99.99,,,0.00,Acu-Link.com,2013-10-24 09:04:00,
2013-10-24 03:20:00,19.2,17.3,30.02,NNE,22,2.7,-999.0,92,-99.99,,,0.00,Acu-Link.com,2013-10-24 09:20:00,
2013-10-24 03:35:00,19.8,17.4,30.01,NE,45,0.0,-999.0,90,-99.99,,,0.00,Acu-Link.com,2013-10-24 09:35:00,
2013-10-24 03:50:00,19.8,16.8,30.02,NNE,22,0.0,-999.0,88,-99.99,,,0.00,Acu-Link.com,2013-10-24 09:50:00,
2013-10-24 04:06:00,19.0,16.3,30.02,NNE,22,0.0,-999.0,89,-99.99,,,0.00,Acu-Link.com,2013-10-24 10:06:00,
2013-10-24 04:21:00,18.5,17.6,30.02,East,90,0.0,-999.0,96,-99.99,,,0.00,Acu-Link.com,2013-10-24 10:21:00,
2013-10-24 04:36:00,18.3,16.9,30.02,ENE,67,0.0,-999.0,94,-99.99,,,0.00,Acu-Link.com,2013-10-24 10:36:00,
2013-10-24 04:51:00,18.1,16.7,30.02,NNE,22,0.0,-999.0,94,-99.99,,,0.00,Acu-Link.com,2013-10-24 10:51:00,
2013-10-24 05:06:00,17.6,16.2,30.03,NNE,22,1.7,-999.0,94,-99.99,,,0.00,Acu-Link.com,2013-10-24 11:06:00,
2013-10-24 05:22:00,17.2,16.3,30.04,NNE,22,1.1,-999.0,96,-99.99,,,0.00,Acu-Link.com,2013-10-24 11:22:00,
2013-10-24 05:37:00,17.1,16.6,30.04,NNE,22,2.7,-999.0,98,-99.99,,,0.00,Acu-Link.com,2013-10-24 11:37:00,
2013-10-24 05:52:00,17.1,16.6,30.04,NE,45,0.0,-999.0,98,-99.99,,,0.00,Acu-Link.com,2013-10-24 11:52:00,
2013-10-24 06:08:00,16.3,14.9,30.04,NNE,22,0.0,-999.0,94,-99.99,,,0.00,Acu-Link.com,2013-10-24 12:08:00,
2013-10-24 06:23:00,16.0,15.5,30.04,ESE,112,0.0,-999.0,98,-99.99,,,0.00,Acu-Link.com,2013-10-24 12:23:00,
2013-10-24 06:38:00,15.6,15.1,30.05,NNW,337,2.2,-999.0,98,-99.99,,,0.00,Acu-Link.com,2013-10-24 12:38:00,
2013-10-24 06:53:00,16.2,15.7,30.05,NNE,22,0.0,-999.0,98,-99.99,,,0.00,Acu-Link.com,2013-10-24 12:53:00,
2013-10-24 07:09:00,15.3,14.4,30.07,NE,45,0.0,-999.0,96,-99.99,,,0.00,Acu-Link.com,2013-10-24 13:09:00,
2013-10-24 07:24:00,15.6,15.1,30.06,NE,45,0.0,-999.0,98,-99.99,,,0.00,Acu-Link.com,2013-10-24 13:24:00,
2013-10-24 07:39:00,15.6,15.1,30.07,NNE,22,0.0,-999.0,98,-99.99,,,0.00,Acu-Link.com,2013-10-24 13:39:00,
2013-10-24 07:54:00,15.6,15.1,30.07,ENE,67,0.0,-999.0,98,-99.99,,,0.00,Acu-Link.com,2013-10-24 13:54:00,
2013-10-24 08:10:00,23.5,23.0,30.08,SSE,157,0.0,-999.0,98,-99.99,,,0.00,Acu-Link.com,2013-10-24 14:10:00,
2013-10-24 08:25:00,24.8,19.5,30.09,East,90,0.0,-999.0,80,-99.99,,,0.00,Acu-Link.com,2013-10-24 14:25:00,
2013-10-24 08:40:00,26.6,21.0,30.08,ESE,112,2.2,-999.0,79,-99.99,,,0.00,Acu-Link.com,2013-10-24 14:40:00,
2013-10-24 08:55:00,27.1,21.8,30.08,South,180,1.1,-999.0,80,-99.99,,,0.00,Acu-Link.com,2013-10-24 14:55:00,
2013-10-24 09:11:00,31.3,23.7,30.08,ENE,67,2.7,-999.0,73,-99.99,,,0.00,Acu-Link.com,2013-10-24 15:11:00,
2013-10-24 09:26:00,33.6,25.6,30.09,East,90,1.1,-999.0,72,-99.99,,,0.00,Acu-Link.com,2013-10-24 15:26:00,
2013-10-24 09:41:00,35.4,24.5,30.09,ESE,112,1.7,-999.0,64,-99.99,,,0.00,Acu-Link.com,2013-10-24 15:41:00,
2013-10-24 09:56:00,38.5,25.8,30.08,ESE,112,2.7,-999.0,60,-99.99,,,0.00,Acu-Link.com,2013-10-24 15:56:00,
2013-10-24 10:11:00,39.6,26.9,30.07,South,180,2.7,-999.0,60,-99.99,,,0.00,Acu-Link.com,2013-10-24 16:11:00,
2013-10-24 10:26:00,42.1,27.5,30.08,South,180,2.2,-999.0,56,-99.99,,,0.00,Acu-Link.com,2013-10-24 16:26:00,
2013-10-24 10:42:00,45.1,29.0,30.06,South,180,3.7,-999.0,53,-99.99,,,0.00,Acu-Link.com,2013-10-24 16:42:00,
2013-10-24 10:57:00,45.3,27.8,30.06,SSW,202,3.2,-999.0,50,-99.99,,,0.00,Acu-Link.com,2013-10-24 16:57:00,
2013-10-24 11:12:00,45.9,27.8,30.05,SSE,157,1.7,-999.0,49,-99.99,,,0.00,Acu-Link.com,2013-10-24 17:12:00,
2013-10-24 11:27:00,46.4,27.3,30.04,SSW,202,4.2,-999.0,47,-99.99,,,0.00,Acu-Link.com,2013-10-24 17:27:00,
2013-10-24 11:43:00,49.5,29.6,30.03,West,270,3.2,-999.0,46,-99.99,,,0.00,Acu-Link.com,2013-10-24 17:43:00,
2013-10-24 11:58:00,52.5,29.5,30.03,SSW,202,2.7,-999.0,41,-99.99,,,0.00,Acu-Link.com,2013-10-24 17:58:00,
2013-10-24 12:13:00,53.2,28.9,30.01,SW,225,2.2,-999.0,39,-99.99,,,0.00,Acu-Link.com,2013-10-24 18:13:00,
2013-10-24 12:28:00,54.9,30.4,30.00,ESE,112,3.7,-999.0,39,-99.99,,,0.00,Acu-Link.com,2013-10-24 18:28:00,
2013-10-24 12:43:00,56.5,30.5,29.99,SW,225,2.7,-999.0,37,-99.99,,,0.00,Acu-Link.com,2013-10-24 18:43:00,
2013-10-24 12:58:00,57.2,31.8,29.98,NE,45,3.2,-999.0,38,-99.99,,,0.00,Acu-Link.com,2013-10-24 18:58:00,
2013-10-24 13:14:00,59.5,31.1,29.96,SSW,202,0.0,-999.0,34,-99.99,,,0.00,Acu-Link.com,2013-10-24 19:14:00,
2013-10-24 13:29:00,59.7,31.3,29.95,SSE,157,1.7,-999.0,34,-99.99,,,0.00,Acu-Link.com,2013-10-24 19:29:00,
2013-10-24 13:44:00,60.6,30.6,29.94,South,180,3.2,-999.0,32,-99.99,,,0.00,Acu-Link.com,2013-10-24 19:44:00,
2013-10-24 13:59:00,62.1,31.9,29.92,SSW,202,3.2,-999.0,32,-99.99,,,0.00,Acu-Link.com,2013-10-24 19:59:00,
2013-10-24 14:15:00,64.0,32.8,29.91,South,180,4.2,-999.0,31,-99.99,,,0.00,Acu-Link.com,2013-10-24 20:15:00,
2013-10-24 14:30:00,63.3,29.6,29.90,SSW,202,4.2,-999.0,28,-99.99,,,0.00,Acu-Link.com,2013-10-24 20:30:00,
2013-10-24 14:45:00,64.8,30.0,29.90,South,180,2.7,-999.0,27,-99.99,,,0.00,Acu-Link.com,2013-10-24 20:45:00,
2013-10-24 15:01:00,61.7,28.3,29.91,NNW,337,0.0,-999.0,28,-99.99,,,0.00,Acu-Link.com,2013-10-24 21:01:00,
2013-10-24 15:16:00,60.6,30.6,29.89,NNE,22,2.7,-999.0,32,-99.99,,,0.00,Acu-Link.com,2013-10-24 21:16:00,
2013-10-24 15:31:00,64.6,28.9,29.88,SSE,157,4.7,-999.0,26,-99.99,,,0.00,Acu-Link.com,2013-10-24 21:31:00,
2013-10-24 15:46:00,61.7,28.3,29.88,South,180,1.7,-999.0,28,-99.99,,,0.00,Acu-Link.com,2013-10-24 21:46:00,
2013-10-24 16:01:00,61.2,29.5,29.89,SSE,157,2.2,-999.0,30,-99.99,,,0.00,Acu-Link.com,2013-10-24 22:01:00,
2013-10-24 16:16:00,61.9,29.3,29.87,WNW,292,2.2,-999.0,29,-99.99,,,0.00,Acu-Link.com,2013-10-24 22:16:00,
2013-10-24 16:31:00,60.6,29.8,29.88,SW,225,2.2,-999.0,31,-99.99,,,0.00,Acu-Link.com,2013-10-24 22:31:00,
2013-10-24 16:46:00,59.9,30.7,29.88,SSE,157,3.7,-999.0,33,-99.99,,,0.00,Acu-Link.com,2013-10-24 22:46:00,
2013-10-24 17:02:00,60.3,31.1,29.86,SE,135,2.7,-999.0,33,-99.99,,,0.00,Acu-Link.com,2013-10-24 23:02:00,
2013-10-24 17:17:00,59.4,27.1,29.87,NNE,22,2.2,-999.0,29,-99.99,,,0.00,Acu-Link.com,2013-10-24 23:17:00,
2013-10-24 17:32:00,57.4,27.0,29.89,NNE,22,3.7,-999.0,31,-99.99,,,0.00,Acu-Link.com,2013-10-24 23:32:00,
2013-10-24 17:47:00,57.0,25.1,29.88,NNW,337,2.7,-999.0,29,-99.99,,,0.00,Acu-Link.com,2013-10-24 23:47:00,
2013-10-24 18:02:00,55.4,25.3,29.88,NNE,22,2.7,-999.0,31,-99.99,,,0.00,Acu-Link.com,2013-10-25 00:02:00,
2013-10-24 18:17:00,53.6,25.2,29.89,North,0,2.7,-999.0,33,-99.99,,,0.00,Acu-Link.com,2013-10-25 00:17:00,
2013-10-24 18:33:00,51.6,24.9,29.91,NNW,337,0.0,-999.0,35,-99.99,,,0.00,Acu-Link.com,2013-10-25 00:33:00,
2013-10-24 18:48:00,49.1,24.6,29.92,NNE,22,1.7,-999.0,38,-99.99,,,0.00,Acu-Link.com,2013-10-25 00:48:00,
2013-10-24 19:03:00,47.8,27.0,29.92,West,270,2.2,-999.0,44,-99.99,,,0.00,Acu-Link.com,2013-10-25 01:03:00,
2013-10-24 19:18:00,47.1,25.8,29.92,WNW,292,2.2,-999.0,43,-99.99,,,0.00,Acu-Link.com,2013-10-25 01:18:00,
2013-10-24 19:34:00,45.1,25.0,29.92,West,270,0.0,-999.0,45,-99.99,,,0.00,Acu-Link.com,2013-10-25 01:34:00,
2013-10-24 19:49:00,42.8,24.5,29.94,NE,45,2.7,-999.0,48,-99.99,,,0.00,Acu-Link.com,2013-10-25 01:49:00,
2013-10-24 20:04:00,41.9,24.6,29.95,NNW,337,0.0,-999.0,50,-99.99,,,0.00,Acu-Link.com,2013-10-25 02:04:00,
2013-10-24 20:19:00,40.3,24.5,29.94,West,270,1.7,-999.0,53,-99.99,,,0.00,Acu-Link.com,2013-10-25 02:19:00,
2013-10-24 20:34:00,39.4,24.6,29.95,West,270,0.0,-999.0,55,-99.99,,,0.00,Acu-Link.com,2013-10-25 02:34:00,
2013-10-24 20:49:00,38.8,24.5,29.95,NW,315,2.2,-999.0,56,-99.99,,,0.00,Acu-Link.com,2013-10-25 02:49:00,
2013-10-24 21:04:00,37.8,24.4,29.95,ENE,67,0.0,-999.0,58,-99.99,,,0.00,Acu-Link.com,2013-10-25 03:04:00,
2013-10-24 21:20:00,34.5,23.2,29.95,NNE,22,0.0,-999.0,63,-99.99,,,0.00,Acu-Link.com,2013-10-25 03:20:00,
2013-10-24 21:35:00,33.1,21.9,29.97,NW,315,0.0,-999.0,63,-99.99,,,0.00,Acu-Link.com,2013-10-25 03:35:00,
2013-10-24 21:50:00,31.8,22.8,29.99,SSE,157,0.0,-999.0,69,-99.99,,,0.00,Acu-Link.com,2013-10-25 03:50:00,
2013-10-24 22:05:00,30.4,22.5,29.99,North,0,0.0,-999.0,72,-99.99,,,0.00,Acu-Link.com,2013-10-25 04:05:00,
2013-10-24 22:20:00,28.8,20.9,29.98,ESE,112,0.0,-999.0,72,-99.99,,,0.00,Acu-Link.com,2013-10-25 04:20:00,
2013-10-24 22:35:00,27.9,21.0,29.99,SSE,157,0.0,-999.0,75,-99.99,,,0.00,Acu-Link.com,2013-10-25 04:35:00,
2013-10-24 22:51:00,27.3,20.4,29.99,NNW,337,0.0,-999.0,75,-99.99,,,0.00,Acu-Link.com,2013-10-25 04:51:00,
2013-10-24 23:06:00,26.6,20.7,29.99,NW,315,0.0,-999.0,78,-99.99,,,0.00,Acu-Link.com,2013-10-25 05:06:00,
2013-10-24 23:21:00,26.4,20.5,29.99,West,270,0.0,-999.0,78,-99.99,,,0.00,Acu-Link.com,2013-10-25 05:21:00,
2013-10-24 23:36:00,26.4,19.9,29.99,ESE,112,0.0,-999.0,76,-99.99,,,0.00,Acu-Link.com,2013-10-25 05:36:00,
2013-10-24 23:52:00,27.3,20.4,30.00,NNW,337,4.2,-999.0,75,-99.99,,,0.00,Acu-Link.com,2013-10-25 05:52:00,